createdAt,value
2019-01-21T00:01:51.322Z,146.83
2019-01-21T00:04:21.997Z,142.30
2019-01-21T00:06:52.625Z,144.40
2019-01-21T00:09:23.315Z,137.77
2019-01-21T00:11:53.925Z,132.50
2019-01-21T00:14:24.597Z,132.27
2019-01-21T00:16:55.220Z,130.60
2019-01-21T00:19:26.046Z,128.07
2019-01-21T00:21:56.682Z,126.80
2019-01-21T00:24:27.245Z,125.27
2019-01-21T00:26:57.851Z,125.33
2019-01-21T00:29:28.345Z,119.93
2019-01-21T00:31:58.897Z,124.57
2019-01-21T00:34:29.523Z,125.60
2019-01-21T00:37:03.469Z,126.97
2019-01-21T00:39:32.466Z,129.27
2019-01-21T00:42:03.006Z,125.57
2019-01-21T00:44:33.525Z,118.43
2019-01-21T00:47:04.177Z,122.40
2019-01-21T00:49:34.740Z,113.73
2019-01-21T00:52:05.317Z,110.53
2019-01-21T00:54:35.906Z,107.93
2019-01-21T00:57:06.488Z,106.57
2019-01-21T00:59:37.165Z,102.83
2019-01-21T01:02:07.817Z,100.87
2019-01-21T01:04:38.360Z,95.20
2019-01-21T01:07:09.136Z,93.23
2019-01-21T01:09:39.859Z,93.03
2019-01-21T01:12:10.525Z,83.77
2019-01-21T01:14:41.025Z,90.33
2019-01-21T01:17:11.717Z,90.17
2019-01-21T01:19:42.297Z,83.47
2019-01-21T01:22:13.277Z,82.87
2019-01-21T01:24:43.919Z,80.57
2019-01-21T01:27:14.455Z,72.90
2019-01-21T01:29:45.175Z,71.87
2019-01-21T01:32:15.897Z,69.87
2019-01-21T01:34:46.499Z,66.70
2019-01-21T01:37:17.097Z,61.87
2019-01-21T01:39:47.697Z,56.57
2019-01-21T01:42:18.245Z,64.57
2019-01-21T01:44:48.737Z,64.00
2019-01-21T01:47:19.554Z,54.60
2019-01-21T01:49:50.132Z,60.80
2019-01-21T01:52:20.797Z,54.50
2019-01-21T01:54:51.445Z,51.57
2019-01-21T01:57:21.985Z,47.37
2019-01-21T01:59:52.777Z,47.30
2019-01-21T02:02:24.990Z,46.87
2019-01-21T02:04:55.723Z,49.40
2019-01-21T02:07:26.285Z,45.17
2019-01-21T02:09:56.863Z,43.80
2019-01-21T02:12:27.545Z,46.70
2019-01-21T02:14:58.198Z,44.47
2019-01-21T02:17:28.877Z,45.63
2019-01-21T02:20:01.924Z,44.53
2019-01-21T02:22:35.377Z,43.53
2019-01-21T02:25:07.477Z,42.23
2019-01-21T02:28:19.623Z,42.90
2019-01-21T02:31:36.305Z,41.80
2019-01-21T02:34:49.938Z,42.73
2019-01-21T02:38:07.137Z,39.50
2019-01-21T02:40:50.737Z,37.80
2019-01-21T02:44:18.587Z,37.10
2019-01-21T02:47:46.857Z,36.07
2019-01-21T02:51:03.624Z,36.37
2019-01-21T02:54:08.777Z,40.60
2019-01-21T02:57:27.366Z,40.47
2019-01-21T03:00:55.385Z,38.93
2019-01-21T03:03:59.318Z,38.57
2019-01-21T03:07:20.673Z,36.70
2019-01-21T03:10:21.177Z,35.93
2019-01-21T03:13:23.491Z,36.13
2019-01-21T03:16:46.737Z,38.57
2019-01-21T03:20:02.586Z,37.43
2019-01-21T03:23:23.677Z,38.30
2019-01-21T03:26:37.699Z,36.93
2019-01-21T03:29:32.897Z,38.97
2019-01-21T03:32:37.362Z,40.57
2019-01-21T03:35:58.048Z,40.07
2019-01-21T03:39:20.163Z,40.17
2019-01-21T03:42:11.458Z,38.80
2019-01-21T03:45:33.683Z,39.97
2019-01-21T03:48:23.508Z,40.97
2019-01-21T03:51:38.638Z,36.67
2019-01-21T03:54:23.439Z,38.33
2019-01-21T03:57:51.397Z,40.93
2019-01-21T04:00:40.849Z,39.70
2019-01-21T04:03:58.438Z,39.40
2019-01-21T04:06:55.405Z,35.97
2019-01-21T04:10:18.367Z,36.23
2019-01-21T04:13:26.988Z,37.07
2019-01-21T04:16:43.478Z,37.23
2019-01-21T04:20:05.024Z,40.60
2019-01-21T04:23:19.125Z,38.87
2019-01-21T04:26:09.077Z,39.43
2019-01-21T04:29:27.338Z,37.17
2019-01-21T04:32:27.797Z,36.70
2019-01-21T04:35:24.404Z,35.90
2019-01-21T04:38:29.937Z,35.50
2019-01-21T04:41:42.857Z,33.77
2019-01-21T04:44:55.078Z,32.90
2019-01-21T04:48:17.198Z,33.80
2019-01-21T04:51:35.807Z,38.33
2019-01-21T04:54:52.206Z,37.20
2019-01-21T04:58:20.205Z,35.20
2019-01-21T05:01:35.754Z,36.80
2019-01-21T05:04:49.646Z,38.70
2019-01-21T05:07:54.297Z,39.27
2019-01-21T05:11:09.225Z,38.90
2019-01-21T05:14:31.967Z,36.70
2019-01-21T05:17:42.088Z,38.73
2019-01-21T05:21:10.245Z,37.17
2019-01-21T05:24:14.677Z,37.37
2019-01-21T05:27:00.914Z,37.43
2019-01-21T05:30:03.425Z,38.17
2019-01-21T05:33:18.899Z,38.20
2019-01-21T05:36:39.129Z,39.50
2019-01-21T05:39:47.525Z,40.97
2019-01-21T05:43:04.905Z,38.47
2019-01-21T05:46:08.554Z,37.47
2019-01-21T05:49:15.888Z,37.87
2019-01-21T05:52:35.848Z,38.10
2019-01-21T05:55:47.627Z,38.57
2019-01-21T05:59:09.352Z,42.47
2019-01-21T06:02:31.348Z,39.23
2019-01-21T06:05:59.495Z,40.83
2019-01-21T06:09:20.982Z,39.47
2019-01-21T06:12:14.694Z,38.77
2019-01-21T06:15:21.018Z,39.17
2019-01-21T06:18:29.406Z,38.97
2019-01-21T06:21:57.478Z,41.23
2019-01-21T06:25:12.341Z,41.13
2019-01-21T06:28:15.559Z,41.83
2019-01-21T06:31:12.065Z,42.87
2019-01-21T06:34:21.205Z,41.60
2019-01-21T06:37:18.347Z,39.20
2019-01-21T06:40:39.017Z,41.40
2019-01-21T06:43:38.426Z,40.63
2019-01-21T06:47:06.507Z,42.40
2019-01-21T06:50:21.368Z,40.67
2019-01-21T06:53:49.805Z,39.53
2019-01-21T06:57:12.157Z,39.33
2019-01-21T07:00:29.640Z,36.60
2019-01-21T07:03:46.566Z,41.23
2019-01-21T07:07:00.244Z,42.60
2019-01-21T07:10:05.285Z,45.23
2019-01-21T07:13:33.277Z,44.77
2019-01-21T07:16:54.743Z,45.13
2019-01-21T07:19:41.676Z,41.67
2019-01-21T07:22:56.854Z,42.73
2019-01-21T07:25:58.826Z,41.67
2019-01-21T07:29:01.646Z,40.67
2019-01-21T07:32:12.284Z,41.50
2019-01-21T07:35:40.285Z,42.43
2019-01-21T07:38:47.239Z,42.33
2019-01-21T07:41:51.020Z,42.43
2019-01-21T07:45:11.618Z,44.57
2019-01-21T07:48:21.703Z,46.47
2019-01-21T07:51:25.653Z,42.43
2019-01-21T07:54:46.943Z,41.97
2019-01-21T07:57:54.023Z,43.43
2019-01-21T08:01:10.222Z,42.17
2019-01-21T08:04:18.647Z,41.57
2019-01-21T08:07:19.977Z,39.67
2019-01-21T08:10:38.825Z,42.43
2019-01-21T08:13:46.634Z,43.70
2019-01-21T08:17:01.251Z,40.80
2019-01-21T08:20:14.325Z,41.33
2019-01-21T08:23:17.578Z,42.23
2019-01-21T08:26:25.397Z,40.97
2019-01-21T08:29:25.019Z,41.87
2019-01-21T08:32:42.161Z,40.93
2019-01-21T08:35:54.645Z,42.47
2019-01-21T08:38:59.992Z,40.77
2019-01-21T08:42:17.227Z,43.50
2019-01-21T08:45:21.608Z,38.37
2019-01-21T08:48:21.029Z,41.00
2019-01-21T08:51:43.042Z,42.77
2019-01-21T08:54:32.256Z,46.40
2019-01-21T08:57:51.904Z,39.77
2019-01-21T09:01:04.522Z,42.43
2019-01-21T09:04:32.341Z,42.37
2019-01-21T09:07:39.247Z,42.17
2019-01-21T09:11:02.614Z,41.33
2019-01-21T09:14:05.000Z,43.43
2019-01-21T09:17:21.150Z,38.00
2019-01-21T09:20:38.275Z,40.87
2019-01-21T09:23:56.170Z,42.77
2019-01-21T09:27:24.063Z,41.33
2019-01-21T09:30:42.243Z,39.87
2019-01-21T09:34:10.249Z,38.93
2019-01-21T09:37:38.153Z,40.20
2019-01-21T09:40:43.259Z,30.73
2019-01-21T09:43:43.020Z,39.77
2019-01-21T09:46:30.132Z,36.50
2019-01-21T09:48:58.343Z,40.50
2019-01-21T09:51:29.869Z,41.03
2019-01-21T09:54:01.101Z,39.63
2019-01-21T09:56:34.671Z,36.07
2019-01-21T09:59:05.481Z,40.03
2019-01-21T10:01:36.555Z,40.77
2019-01-21T10:04:07.615Z,39.93
2019-01-21T10:06:49.146Z,36.80
2019-01-21T10:09:58.591Z,43.10
2019-01-21T10:13:14.482Z,40.63
2019-01-21T10:16:27.756Z,40.57
2019-01-21T10:19:50.791Z,42.60
2019-01-21T10:23:08.002Z,39.77
2019-01-21T10:26:17.719Z,36.07
2019-01-21T10:29:18.999Z,37.73
2019-01-21T10:32:46.918Z,38.27
2019-01-21T10:36:00.601Z,39.37
2019-01-21T10:39:27.791Z,37.73
2019-01-21T10:42:55.648Z,36.97
2019-01-21T10:45:50.085Z,39.67
2019-01-21T10:48:39.423Z,39.17
2019-01-21T10:51:56.443Z,40.30
2019-01-21T10:55:06.171Z,39.90
2019-01-21T10:58:00.307Z,39.80
2019-01-21T11:01:19.729Z,40.33
2019-01-21T11:04:32.871Z,38.30
2019-01-21T11:07:47.530Z,39.23
2019-01-21T11:10:47.099Z,36.43
2019-01-21T11:14:14.896Z,38.23
2019-01-21T11:17:29.124Z,38.97
2019-01-21T11:20:45.694Z,38.20
2019-01-21T11:24:02.934Z,37.07
2019-01-21T11:27:16.768Z,38.27
2019-01-21T11:30:28.702Z,38.00
2019-01-21T11:33:41.970Z,36.63
2019-01-21T11:37:09.786Z,35.87
2019-01-21T11:40:22.382Z,36.60
2019-01-21T11:43:37.521Z,36.97
2019-01-21T11:47:05.363Z,38.30
2019-01-21T11:50:10.470Z,37.40
2019-01-21T11:53:15.674Z,36.17
2019-01-21T11:56:08.192Z,37.57
2019-01-21T11:59:01.774Z,38.10
2019-01-21T12:02:14.691Z,33.43
2019-01-21T12:05:32.343Z,35.73
2019-01-21T12:08:55.239Z,34.73
2019-01-21T12:11:58.145Z,36.23
2019-01-21T12:15:11.018Z,38.00
2019-01-21T12:18:34.583Z,36.77
2019-01-21T12:22:02.618Z,39.10
2019-01-21T12:24:58.519Z,36.47
2019-01-21T12:28:21.763Z,37.77
2019-01-21T12:31:24.177Z,36.10
2019-01-21T12:34:31.651Z,37.10
2019-01-21T12:37:37.868Z,39.17
2019-01-21T12:40:52.806Z,37.50
2019-01-21T12:44:06.324Z,39.37
2019-01-21T12:46:55.001Z,39.97
2019-01-21T12:50:24.034Z,41.37
2019-01-21T12:53:12.610Z,40.13
2019-01-21T12:56:12.078Z,39.27
2019-01-21T12:59:17.758Z,37.87
2019-01-21T13:02:17.846Z,39.33
2019-01-21T13:05:14.365Z,38.47
2019-01-21T13:08:24.293Z,42.00
2019-01-21T13:11:33.598Z,39.43
2019-01-21T13:14:27.395Z,38.10
2019-01-21T13:17:23.797Z,39.33
2019-01-21T13:20:30.736Z,41.87
2019-01-21T13:23:29.845Z,46.20
2019-01-21T13:26:57.676Z,49.37
2019-01-21T13:29:52.972Z,40.67
2019-01-21T13:33:20.768Z,42.87
2019-01-21T13:36:12.304Z,42.17
2019-01-21T13:39:30.769Z,44.13
2019-01-21T13:42:42.292Z,43.50
2019-01-21T13:45:55.628Z,46.77
2019-01-21T13:48:58.598Z,43.20
2019-01-21T13:52:03.182Z,43.47
2019-01-21T13:55:13.299Z,44.13
2019-01-21T13:58:26.999Z,41.93
2019-01-21T14:01:22.898Z,43.67
2019-01-21T14:04:39.878Z,44.10
2019-01-21T14:07:52.117Z,44.63
2019-01-21T14:10:52.899Z,43.97
2019-01-21T14:13:48.698Z,43.17
2019-01-21T14:17:08.503Z,42.67
2019-01-21T14:20:09.750Z,41.57
2019-01-21T14:23:37.733Z,41.50
2019-01-21T14:27:05.698Z,45.10
2019-01-21T14:29:54.437Z,44.13
2019-01-21T14:32:52.342Z,41.20
2019-01-21T14:36:12.769Z,44.63
2019-01-21T14:39:35.018Z,48.70
2019-01-21T14:42:46.952Z,46.63
2019-01-21T14:46:00.649Z,45.30
2019-01-21T14:49:13.794Z,46.37
2019-01-21T14:52:41.749Z,45.53
2019-01-21T14:55:57.500Z,46.23
2019-01-21T14:58:58.364Z,48.10
2019-01-21T15:01:58.615Z,49.27
2019-01-21T15:05:15.989Z,48.40
2019-01-21T15:08:05.970Z,46.07
2019-01-21T15:11:19.807Z,45.77
2019-01-21T15:14:23.198Z,45.63
2019-01-21T15:17:51.819Z,49.33
2019-01-21T15:21:06.611Z,55.37
2019-01-21T15:24:30.483Z,46.83
2019-01-21T15:27:44.122Z,44.40
2019-01-21T15:31:07.599Z,47.77
2019-01-21T15:34:03.083Z,71.22
2019-01-21T15:37:31.118Z,53.63
2019-01-21T15:40:59.198Z,52.80
2019-01-21T15:44:10.904Z,52.50
2019-01-21T15:47:30.262Z,49.27
2019-01-21T15:50:24.274Z,47.87
2019-01-21T15:53:36.614Z,50.37
2019-01-21T15:56:53.538Z,51.63
2019-01-21T16:00:16.118Z,46.90
2019-01-21T16:03:17.625Z,49.67
2019-01-21T16:06:39.045Z,51.10
2019-01-21T16:10:06.997Z,51.77
2019-01-21T16:13:09.978Z,50.93
2019-01-21T16:16:37.897Z,54.70
2019-01-21T16:19:22.777Z,55.37
2019-01-21T16:22:43.837Z,59.33
2019-01-21T16:25:45.494Z,59.47
2019-01-21T16:28:49.668Z,59.30
2019-01-21T16:31:48.278Z,61.03
2019-01-21T16:35:02.804Z,62.60
2019-01-21T16:37:53.085Z,61.60
2019-01-21T16:41:21.003Z,65.77
2019-01-21T16:43:52.836Z,64.17
2019-01-21T16:46:23.598Z,67.40
2019-01-21T16:48:54.301Z,65.93
2019-01-21T16:51:24.878Z,65.23
2019-01-21T16:53:55.534Z,65.83
2019-01-21T16:56:26.285Z,67.70
2019-01-21T16:58:56.884Z,70.50
2019-01-21T17:01:29.515Z,70.37
2019-01-21T17:04:00.213Z,68.63
2019-01-21T17:06:31.082Z,71.33
2019-01-21T17:09:01.646Z,80.20
2019-01-21T17:11:32.215Z,73.27
2019-01-21T17:14:03.212Z,66.70
2019-01-21T17:16:33.858Z,64.03
2019-01-21T17:19:04.519Z,63.83
2019-01-21T17:24:05.997Z,71.73
2019-01-21T17:26:36.786Z,75.23
2019-01-21T17:29:07.494Z,80.77
2019-01-21T17:31:38.054Z,93.93
2019-01-21T17:34:09.278Z,90.47
2019-01-21T17:36:40.065Z,90.30
2019-01-21T17:39:11.205Z,95.20
2019-01-21T17:41:46.928Z,93.13
2019-01-21T17:44:17.710Z,100.97
2019-01-21T17:46:51.301Z,106.63
2019-01-21T17:49:42.303Z,105.47
2019-01-21T17:52:17.413Z,92.40
2019-01-21T17:54:48.137Z,89.60
2019-01-21T17:57:18.964Z,88.60
2019-01-21T17:59:49.641Z,91.63
2019-01-21T18:02:39.549Z,93.47
2019-01-21T18:05:11.844Z,94.07
2019-01-21T18:07:42.676Z,89.57
2019-01-21T18:10:22.204Z,90.63
2019-01-21T18:12:53.043Z,86.60
2019-01-21T18:15:23.832Z,75.00
2019-01-21T18:17:55.563Z,81.57
2019-01-21T18:20:32.119Z,82.20
2019-01-21T18:23:10.809Z,85.80
2019-01-21T18:25:43.178Z,82.37
2019-01-21T18:28:14.295Z,80.77
2019-01-21T18:30:48.049Z,80.77
2019-01-21T18:33:25.713Z,77.80
2019-01-21T18:35:56.869Z,77.30
2019-01-21T18:38:28.840Z,74.57
2019-01-21T18:41:04.197Z,76.67
2019-01-21T18:43:35.043Z,81.77
2019-01-21T18:46:06.994Z,83.23
2019-01-21T18:48:42.503Z,88.17
2019-01-21T18:51:20.509Z,84.37
2019-01-21T18:53:51.523Z,78.07
2019-01-21T18:56:24.864Z,83.27
2019-01-21T18:59:02.370Z,79.70
2019-01-21T19:01:34.284Z,75.40
2019-01-21T19:04:08.626Z,74.13
2019-01-21T19:06:54.840Z,75.40
2019-01-21T19:09:26.113Z,75.03
2019-01-21T19:11:59.354Z,76.30
2019-01-21T19:14:32.101Z,76.00
2019-01-21T19:17:04.074Z,75.27
2019-01-21T19:19:34.928Z,73.77
2019-01-21T19:22:11.193Z,74.57
2019-01-21T19:24:50.017Z,70.97
2019-01-21T19:27:26.380Z,72.83
2019-01-21T19:29:58.754Z,72.47
2019-01-21T19:32:31.025Z,71.77
2019-01-21T19:35:02.136Z,70.47
2019-01-21T19:37:38.830Z,71.47
2019-01-21T19:40:15.553Z,71.07
2019-01-21T19:42:55.273Z,71.20
2019-01-21T19:45:25.970Z,68.03
2019-01-21T19:47:58.247Z,69.73
2019-01-21T19:50:30.330Z,68.97
2019-01-21T19:53:01.458Z,69.37
2019-01-21T19:55:39.156Z,74.23
2019-01-21T19:58:11.792Z,67.63
2019-01-21T20:00:45.555Z,66.77
2019-01-21T20:03:19.842Z,65.70
2019-01-21T20:05:57.228Z,68.30
2019-01-21T20:08:33.998Z,72.90
2019-01-21T20:11:10.546Z,74.03
2019-01-21T20:13:50.825Z,71.37
2019-01-21T20:16:24.415Z,73.47
2019-01-21T20:18:56.449Z,73.40
2019-01-21T20:21:28.785Z,71.47
2019-01-21T20:24:01.688Z,76.17
2019-01-21T20:26:33.759Z,72.87
2019-01-21T20:29:11.116Z,78.70
2019-01-21T20:31:45.469Z,78.47
2019-01-21T20:34:19.031Z,74.37
2019-01-21T20:36:51.345Z,75.87
2019-01-21T20:39:27.774Z,75.53
2019-01-21T20:42:01.143Z,77.67
2019-01-21T20:44:35.914Z,77.57
2019-01-21T20:47:15.034Z,76.13
2019-01-21T20:49:45.852Z,71.27
2019-01-21T20:52:16.764Z,74.33
2019-01-21T20:54:49.023Z,75.60
2019-01-21T20:57:20.011Z,76.07
2019-01-21T20:59:53.947Z,75.50
2019-01-21T21:02:33.201Z,76.07
2019-01-21T21:05:10.141Z,72.10
2019-01-21T21:07:42.543Z,65.57
2019-01-21T21:10:14.703Z,79.30
2019-01-21T21:12:48.858Z,61.33
2019-01-21T21:15:29.529Z,76.67
2019-01-21T21:18:08.510Z,73.83
2019-01-21T21:20:41.501Z,71.47
2019-01-21T21:23:12.434Z,69.37
2019-01-21T21:25:48.834Z,74.30
2019-01-21T21:28:21.124Z,68.60
2019-01-21T21:30:58.665Z,67.40
2019-01-21T21:33:30.026Z,81.23
2019-01-21T21:36:06.983Z,83.83
2019-01-21T21:38:37.729Z,75.40
2019-01-21T21:41:08.710Z,84.03
2019-01-21T21:43:39.638Z,65.07
2019-01-21T21:46:13.823Z,71.63
2019-01-21T21:48:44.725Z,65.23
2019-01-21T21:51:15.883Z,77.17
2019-01-21T21:53:46.713Z,77.77
2019-01-21T21:56:17.540Z,74.93
2019-01-21T21:58:48.243Z,78.87
2019-01-21T22:01:23.870Z,76.30
2019-01-21T22:03:51.457Z,77.90
2019-01-21T22:06:22.298Z,84.07
2019-01-21T22:08:53.298Z,74.63
2019-01-21T22:11:23.965Z,80.23
2019-01-21T22:13:54.837Z,82.47
2019-01-21T22:16:25.626Z,79.40
2019-01-21T22:18:56.478Z,82.93
2019-01-21T22:21:27.104Z,82.00
2019-01-21T22:23:58.297Z,82.87
2019-01-21T22:26:29.431Z,88.90
2019-01-21T22:28:59.965Z,85.10
2019-01-21T22:31:30.706Z,85.23
2019-01-21T22:34:01.274Z,81.47
2019-01-21T22:36:31.970Z,78.07
2019-01-21T22:39:02.773Z,78.83
2019-01-21T22:41:33.396Z,89.33
2019-01-21T22:44:04.105Z,85.70
2019-01-21T22:46:34.808Z,93.47
2019-01-21T22:49:06.025Z,99.67
2019-01-21T22:51:36.883Z,90.17
2019-01-21T22:54:07.485Z,91.07
2019-01-21T22:56:38.165Z,94.17
2019-01-21T22:59:08.882Z,94.40
2019-01-21T23:01:39.917Z,95.87
2019-01-21T23:04:10.685Z,92.97
2019-01-21T23:06:41.515Z,92.03
2019-01-21T23:09:12.319Z,88.37
2019-01-21T23:11:43.347Z,89.17
2019-01-21T23:14:13.987Z,87.43
2019-01-21T23:16:44.642Z,87.97
2019-01-21T23:19:15.586Z,86.33
2019-01-21T23:21:46.205Z,90.67
2019-01-21T23:24:17.124Z,83.47
2019-01-21T23:26:47.861Z,84.60
2019-01-21T23:29:18.355Z,61.03
2019-01-21T23:31:49.057Z,67.53
2019-01-21T23:34:19.725Z,77.73
2019-01-21T23:36:50.307Z,85.03
2019-01-21T23:39:21.045Z,81.13
2019-01-21T23:41:51.838Z,75.53
2019-01-21T23:44:22.565Z,79.03
2019-01-21T23:46:53.263Z,83.40
2019-01-21T23:49:23.862Z,87.57
2019-01-21T23:51:54.526Z,88.70
2019-01-21T23:54:25.092Z,87.00
2019-01-21T23:56:55.885Z,79.13
2019-01-21T23:59:26.366Z,82.77
